Time;durP1;ratioP1;P1;durP2;ratioP2;P2;SDS_P1;SDS_P2;PMS_P1;PMS_P2;Temp;Humidity;BMP_temperature;BMP_pressure;BME280_temperature;BME280_humidity;BME280_pressure;Samples;Min_cycle;Max_cycle;Signal;HPM_P1;HPM_P2
2022/04/29 00:00:01;;;;;;;28.05;11.57;;;;;;;;;;4991409;28;20026;-66
2022/04/29 00:02:28;;;;;;;26.83;12.40;;;;;;;;;;4990083;28;20095;-66
2022/04/29 00:04:54;;;;;;;30.05;12.02;;;;;;;;;;4990834;28;20038;-66
2022/04/29 00:07:20;;;;;;;30.58;12.20;;;;;;;;;;4991413;28;20030;-66
2022/04/29 00:09:46;;;;;;;29.25;11.85;;;;;;;;;;4991039;28;20400;-66
2022/04/29 00:12:12;;;;;;;32.33;12.18;;;;;;;;;;4991165;28;20058;-66
2022/04/29 00:14:38;;;;;;;33.70;12.75;;;;;;;;;;4990797;28;20038;-66
2022/04/29 00:17:05;;;;;;;41.70;15.10;;;;;;;;;;4991048;28;20018;-66
2022/04/29 00:19:32;;;;;;;43.78;14.75;;;;;;;;;;4990674;28;20069;-66
2022/04/29 00:21:58;;;;;;;45.33;15.70;;;;;;;;;;4979796;28;20031;-66
2022/04/29 00:24:25;;;;;;;43.45;15.30;;;;;;;;;;4971619;28;20396;-66
2022/04/29 00:26:51;;;;;;;47.83;16.02;;;;;;;;;;4971068;28;20038;-66
2022/04/29 00:29:17;;;;;;;33.88;15.65;;;;;;;;;;4971583;28;20019;-66
2022/04/29 00:31:43;;;;;;;41.15;15.23;;;;;;;;;;4971701;28;20081;-66
2022/04/29 00:34:10;;;;;;;44.35;15.07;;;;;;;;;;4971124;28;20039;-66
2022/04/29 00:36:36;;;;;;;40.15;16.13;;;;;;;;;;4971393;28;20023;-66
2022/04/29 00:39:02;;;;;;;39.42;16.00;;;;;;;;;;4971470;28;20137;-66
2022/04/29 00:41:29;;;;;;;45.88;15.70;;;;;;;;;;4971158;28;20080;-66
2022/04/29 00:44:03;;;;;;;42.33;16.88;;;;;;;;;;4971310;28;20039;-66
2022/04/29 00:46:33;;;;;;;35.97;15.88;;;;;;;;;;4971413;28;20042;-66
2022/04/29 00:48:59;;;;;;;36.47;14.85;;;;;;;;;;4970632;28;20502;-66
2022/04/29 00:51:25;;;;;;;43.00;15.32;;;;;;;;;;4985003;28;20534;-66
2022/04/29 00:53:52;;;;;;;39.33;14.57;;;;;;;;;;4989015;28;20545;-66
2022/04/29 00:56:20;;;;;;;42.15;15.85;;;;;;;;;;4989218;28;20034;-66
2022/04/29 00:58:49;;;;;;;41.35;14.45;;;;;;;;;;4988989;28;20064;-66
2022/04/29 01:01:16;;;;;;;39.95;16.58;;;;;;;;;;4953760;28;20046;-66
2022/04/29 01:03:42;;;;;;;41.38;15.10;;;;;;;;;;4977587;28;20037;-66
2022/04/29 01:06:08;;;;;;;42.70;15.70;;;;;;;;;;4984451;28;20041;-66
2022/04/29 01:08:35;;;;;;;39.03;15.50;;;;;;;;;;4980306;28;20405;-66
2022/04/29 01:11:01;;;;;;;41.03;14.95;;;;;;;;;;4969372;28;20107;-66
2022/04/29 01:13:27;;;;;;;36.42;15.27;;;;;;;;;;4984556;28;20523;-66
2022/04/29 01:15:57;;;;;;;32.88;14.40;;;;;;;;;;4990013;28;20033;-66
2022/04/29 01:18:23;;;;;;;42.22;14.90;;;;;;;;;;4989943;28;20038;-66
2022/04/29 01:21:00;;;;;;;38.33;16.38;;;;;;;;;;4988480;28;20496;-66
2022/04/29 01:23:28;;;;;;;37.58;14.55;;;;;;;;;;4988960;28;20121;-66
2022/04/29 01:25:55;;;;;;;41.17;15.00;;;;;;;;;;4988612;28;20041;-66
2022/04/29 01:28:24;;;;;;;32.53;13.75;;;;;;;;;;4988190;28;20035;-66
2022/04/29 01:30:55;;;;;;;35.45;14.10;;;;;;;;;;4988504;28;20537;-66
2022/04/29 01:33:22;;;;;;;30.67;13.15;;;;;;;;;;4989678;28;20060;-66
2022/04/29 01:35:48;;;;;;;34.65;13.80;;;;;;;;;;4989731;28;20022;-66
2022/04/29 01:38:16;;;;;;;28.08;13.52;;;;;;;;;;4988715;28;20062;-66
2022/04/29 01:40:43;;;;;;;37.25;14.80;;;;;;;;;;4972447;28;20462;-66
2022/04/29 01:43:14;;;;;;;27.45;12.73;;;;;;;;;;4988665;28;20035;-66
2022/04/29 01:45:40;;;;;;;29.02;12.57;;;;;;;;;;4988424;28;20038;-66
2022/04/29 01:48:21;;;;;;;36.05;14.07;;;;;;;;;;4988068;28;20780;-66
2022/04/29 01:51:10;;;;;;;33.95;13.73;;;;;;;;;;4989734;28;20042;-66
2022/04/29 01:53:37;;;;;;;33.85;13.07;;;;;;;;;;4988599;28;20033;-66
2022/04/29 01:56:04;;;;;;;30.52;12.93;;;;;;;;;;4987866;28;20023;-66
2022/04/29 01:58:32;;;;;;;28.98;12.55;;;;;;;;;;4987940;28;20041;-66
2022/04/29 02:00:58;;;;;;;25.38;11.57;;;;;;;;;;4987761;28;20045;-66
2022/04/29 02:03:24;;;;;;;23.42;12.27;;;;;;;;;;4988221;28;20507;-66
2022/04/29 02:05:51;;;;;;;28.80;12.40;;;;;;;;;;4988220;28;20034;-66
2022/04/29 02:08:18;;;;;;;28.65;12.77;;;;;;;;;;4988206;28;20042;-66
2022/04/29 02:10:45;;;;;;;24.98;11.93;;;;;;;;;;4972076;28;20080;-66
2022/04/29 02:13:16;;;;;;;28.25;12.52;;;;;;;;;;4968661;28;20508;-66
2022/04/29 02:16:10;;;;;;;23.95;11.50;;;;;;;;;;4968385;28;20500;-66
2022/04/29 02:18:36;;;;;;;29.13;11.82;;;;;;;;;;4968904;28;20091;-66
2022/04/29 02:21:04;;;;;;;24.10;12.25;;;;;;;;;;4976135;28;20481;-66
2022/04/29 02:23:30;;;;;;;25.85;12.13;;;;;;;;;;4988097;28;20103;-66
2022/04/29 02:25:59;;;;;;;23.85;11.32;;;;;;;;;;4988472;28;20027;-66
2022/04/29 02:28:27;;;;;;;26.65;11.95;;;;;;;;;;4992857;28;20439;-66
2022/04/29 02:30:56;;;;;;;29.70;13.20;;;;;;;;;;4990940;28;20030;-66
2022/04/29 02:33:23;;;;;;;19.85;11.05;;;;;;;;;;4991359;28;20030;-66
2022/04/29 02:35:49;;;;;;;24.90;11.90;;;;;;;;;;4991212;28;20114;-66
2022/04/29 02:38:16;;;;;;;27.25;12.15;;;;;;;;;;4992621;28;20023;-66
2022/04/29 02:40:42;;;;;;;22.23;11.30;;;;;;;;;;4991443;28;20034;-66
2022/04/29 02:43:08;;;;;;;22.85;11.95;;;;;;;;;;4992595;28;20109;-66
2022/04/29 02:45:34;;;;;;;25.23;12.23;;;;;;;;;;4990780;28;20480;-66
2022/04/29 02:48:00;;;;;;;27.25;12.82;;;;;;;;;;4991037;28;20496;-66
2022/04/29 02:50:27;;;;;;;32.05;12.70;;;;;;;;;;4991201;28;20026;-66
2022/04/29 02:52:59;;;;;;;24.48;12.15;;;;;;;;;;4990805;28;20034;-66
2022/04/29 02:55:25;;;;;;;23.42;12.43;;;;;;;;;;4984128;28;20031;-66
2022/04/29 02:58:12;;;;;;;29.13;12.18;;;;;;;;;;4991766;28;20504;-66
2022/04/29 03:00:39;;;;;;;28.15;12.00;;;;;;;;;;4990777;28;20030;-66
2022/04/29 03:03:06;;;;;;;24.33;11.15;;;;;;;;;;4990620;28;20026;-66
2022/04/29 03:05:33;;;;;;;26.50;12.18;;;;;;;;;;4992064;28;20565;-66
2022/04/29 03:08:00;;;;;;;24.58;11.30;;;;;;;;;;4991934;28;20034;-66
2022/04/29 03:10:26;;;;;;;26.90;12.05;;;;;;;;;;4991019;28;20030;-66
2022/04/29 03:12:53;;;;;;;22.48;11.82;;;;;;;;;;4990670;28;20034;-66
2022/04/29 03:15:25;;;;;;;21.83;11.40;;;;;;;;;;4990366;28;20027;-66
2022/04/29 03:20:43;;;;;;;25.00;12.65;;;;;;;;;;4990653;28;20074;-66
2022/04/29 03:23:10;;;;;;;30.38;12.25;;;;;;;;;;4990405;28;20569;-66
2022/04/29 03:25:41;;;;;;;22.63;11.60;;;;;;;;;;4989920;28;20545;-66
2022/04/29 03:28:07;;;;;;;31.95;11.55;;;;;;;;;;4982988;28;20499;-65
2022/04/29 03:30:34;;;;;;;28.00;13.57;;;;;;;;;;4984113;28;20122;-65
2022/04/29 03:33:03;;;;;;;24.42;12.13;;;;;;;;;;5013628;28;20132;-65
2022/04/29 03:35:31;;;;;;;21.77;11.30;;;;;;;;;;4984409;28;20104;-65
2022/04/29 03:37:58;;;;;;;28.52;10.43;;;;;;;;;;4987380;28;20035;-65
2022/04/29 03:40:25;;;;;;;24.10;10.27;;;;;;;;;;4976266;28;20041;-66
2022/04/29 03:42:53;;;;;;;22.17;10.57;;;;;;;;;;4971087;28;20030;-66
2022/04/29 03:45:21;;;;;;;24.77;10.98;;;;;;;;;;5010240;28;20022;-65
2022/04/29 03:47:49;;;;;;;19.65;10.18;;;;;;;;;;5000281;28;20035;-65
2022/04/29 03:50:51;;;;;;;22.27;10.77;;;;;;;;;;4995482;28;20049;-65
2022/04/29 03:53:17;;;;;;;31.88;12.20;;;;;;;;;;5010925;28;20117;-65
2022/04/29 03:55:56;;;;;;;25.38;12.85;;;;;;;;;;4994783;28;20411;-66
2022/04/29 03:58:22;;;;;;;23.30;11.45;;;;;;;;;;4987946;28;20377;-65
2022/04/29 04:00:51;;;;;;;32.08;12.40;;;;;;;;;;4991413;28;20136;-65
2022/04/29 04:03:39;;;;;;;24.88;11.00;;;;;;;;;;4998477;28;20574;-65
2022/04/29 04:08:54;;;;;;;28.17;10.57;;;;;;;;;;4984756;28;20046;-65
2022/04/29 04:11:20;;;;;;;22.02;10.70;;;;;;;;;;4993662;28;20044;-65
2022/04/29 04:13:46;;;;;;;26.15;12.80;;;;;;;;;;4990240;28;20046;-65
2022/04/29 04:16:31;;;;;;;25.70;11.38;;;;;;;;;;4994281;28;20038;-65
2022/04/29 04:18:58;;;;;;;19.17;10.52;;;;;;;;;;5010656;28;20080;-64
2022/04/29 04:21:24;;;;;;;24.30;11.43;;;;;;;;;;5001050;28;20038;-65
2022/04/29 04:23:50;;;;;;;24.80;11.15;;;;;;;;;;5007624;28;20030;-65
2022/04/29 04:26:16;;;;;;;21.48;10.80;;;;;;;;;;4980317;28;20026;-65
2022/04/29 04:28:43;;;;;;;27.50;11.07;;;;;;;;;;4975083;28;20043;-65
2022/04/29 04:31:09;;;;;;;28.17;12.55;;;;;;;;;;4986126;28;20027;-66
2022/04/29 04:33:49;;;;;;;24.52;11.60;;;;;;;;;;4975929;28;20058;-66
2022/04/29 04:36:16;;;;;;;21.77;11.38;;;;;;;;;;4988986;28;20029;-66
2022/04/29 04:38:44;;;;;;;31.65;12.60;;;;;;;;;;4990193;28;20487;-66
2022/04/29 04:41:14;;;;;;;20.35;10.57;;;;;;;;;;4987795;28;20122;-66
2022/04/29 04:43:41;;;;;;;19.65;10.73;;;;;;;;;;4975677;28;20041;-66
2022/04/29 04:46:11;;;;;;;22.08;10.80;;;;;;;;;;4980688;28;20427;-66
2022/04/29 04:48:43;;;;;;;19.60;11.55;;;;;;;;;;4979260;28;20116;-66
2022/04/29 04:51:18;;;;;;;24.55;10.55;;;;;;;;;;4982572;28;20113;-65
2022/04/29 04:54:06;;;;;;;22.15;11.60;;;;;;;;;;4992859;28;20105;-65
2022/04/29 04:56:33;;;;;;;31.13;12.45;;;;;;;;;;4971752;28;20039;-66
2022/04/29 04:59:00;;;;;;;21.25;10.75;;;;;;;;;;4986897;28;20046;-66
2022/04/29 05:01:27;;;;;;;23.52;12.68;;;;;;;;;;4985886;28;20034;-65
2022/04/29 05:04:11;;;;;;;23.45;10.52;;;;;;;;;;4988154;28;20041;-65
2022/04/29 05:06:49;;;;;;;25.63;12.57;;;;;;;;;;4979776;28;20053;-65
2022/04/29 05:09:16;;;;;;;23.05;10.60;;;;;;;;;;4972163;28;20489;-65
2022/04/29 05:11:42;;;;;;;23.30;10.63;;;;;;;;;;4979554;28;20026;-65
2022/04/29 05:14:19;;;;;;;22.45;11.05;;;;;;;;;;4998295;28;20058;-65
2022/04/29 05:16:46;;;;;;;23.42;10.73;;;;;;;;;;4980148;28;20514;-66
2022/04/29 05:19:31;;;;;;;20.60;9.73;;;;;;;;;;4980452;28;20045;-66
2022/04/29 05:21:57;;;;;;;25.27;11.57;;;;;;;;;;4977421;28;20037;-66
2022/04/29 05:24:24;;;;;;;21.50;11.00;;;;;;;;;;4976764;28;20027;-66
2022/04/29 05:27:11;;;;;;;20.88;11.18;;;;;;;;;;4976228;28;20121;-66
2022/04/29 05:29:39;;;;;;;22.08;10.57;;;;;;;;;;4975813;28;20035;-66
2022/04/29 05:32:29;;;;;;;19.30;10.77;;;;;;;;;;4988283;28;20113;-66
2022/04/29 05:35:14;;;;;;;19.08;10.07;;;;;;;;;;4986539;28;20115;-65
2022/04/29 05:38:00;;;;;;;19.20;10.10;;;;;;;;;;4989633;28;20073;-65
2022/04/29 05:43:11;;;;;;;27.10;11.70;;;;;;;;;;4986185;28;20408;-65
2022/04/29 05:45:37;;;;;;;18.77;9.65;;;;;;;;;;4979455;28;20065;-65
2022/04/29 05:48:05;;;;;;;21.13;10.40;;;;;;;;;;4987554;28;20514;-65
2022/04/29 05:50:32;;;;;;;27.25;11.88;;;;;;;;;;4987007;28;20742;-65
2022/04/29 05:53:00;;;;;;;22.30;11.50;;;;;;;;;;4987494;28;20026;-65
2022/04/29 05:55:27;;;;;;;25.13;11.88;;;;;;;;;;4977130;28;20071;-65
2022/04/29 05:57:58;;;;;;;24.35;11.15;;;;;;;;;;4982160;28;20137;-65
2022/04/29 06:00:24;;;;;;;30.40;11.02;;;;;;;;;;4972884;28;20031;-65
2022/04/29 06:03:01;;;;;;;20.92;10.80;;;;;;;;;;4988918;28;20026;-65
2022/04/29 06:05:29;;;;;;;22.63;10.95;;;;;;;;;;5007034;28;20018;-65
2022/04/29 06:07:55;;;;;;;26.83;13.25;;;;;;;;;;4973556;28;20500;-65
2022/04/29 06:10:30;;;;;;;27.30;12.35;;;;;;;;;;4972192;28;20038;-65
2022/04/29 06:12:57;;;;;;;24.60;11.73;;;;;;;;;;4984185;28;20492;-65
2022/04/29 06:15:27;;;;;;;27.77;12.55;;;;;;;;;;4973390;28;20445;-67
2022/04/29 06:18:28;;;;;;;26.60;11.98;;;;;;;;;;5026291;28;20029;-67
2022/04/29 06:20:57;;;;;;;21.63;11.27;;;;;;;;;;5025596;28;20407;-67
2022/04/29 06:23:42;;;;;;;22.20;11.20;;;;;;;;;;5013176;28;21156;-67
2022/04/29 06:26:09;;;;;;;24.25;12.35;;;;;;;;;;5025486;28;20434;-67
2022/04/29 06:28:36;;;;;;;24.10;11.93;;;;;;;;;;5013926;28;20141;-67
2022/04/29 06:31:05;;;;;;;28.38;13.23;;;;;;;;;;5015143;28;20100;-67
2022/04/29 06:33:31;;;;;;;30.33;14.20;;;;;;;;;;5025605;28;20050;-67
2022/04/29 06:35:58;;;;;;;32.13;14.80;;;;;;;;;;5031246;28;20035;-67
2022/04/29 06:38:25;;;;;;;31.38;13.98;;;;;;;;;;5029813;28;20108;-67
2022/04/29 06:40:57;;;;;;;29.20;13.68;;;;;;;;;;5028844;28;20034;-67
2022/04/29 06:43:43;;;;;;;40.55;17.60;;;;;;;;;;5011215;28;20543;-67
2022/04/29 06:46:28;;;;;;;34.33;15.15;;;;;;;;;;5030889;28;20041;-67
2022/04/29 06:49:13;;;;;;;38.58;17.60;;;;;;;;;;5031690;28;20044;-67
2022/04/29 06:51:51;;;;;;;38.97;16.30;;;;;;;;;;5016313;28;20386;-67
2022/04/29 06:54:22;;;;;;;34.83;16.10;;;;;;;;;;4981922;28;20228;-67
2022/04/29 06:56:55;;;;;;;45.78;18.20;;;;;;;;;;4975669;28;20058;-68
2022/04/29 06:59:23;;;;;;;43.15;18.20;;;;;;;;;;4976725;28;20029;-68
2022/04/29 07:01:49;;;;;;;43.97;19.02;;;;;;;;;;4975223;28;20508;-67
2022/04/29 07:04:15;;;;;;;47.25;18.48;;;;;;;;;;5006794;28;20572;-68
2022/04/29 07:06:42;;;;;;;52.67;19.58;;;;;;;;;;4986134;28;20063;-68
2022/04/29 07:09:09;;;;;;;39.25;18.65;;;;;;;;;;4980234;28;20022;-68
2022/04/29 07:11:54;;;;;;;49.80;20.80;;;;;;;;;;4990335;28;20035;-67
2022/04/29 07:14:32;;;;;;;47.67;21.05;;;;;;;;;;4988506;28;20038;-68
2022/04/29 07:17:11;;;;;;;58.20;21.80;;;;;;;;;;4975258;28;20033;-68
2022/04/29 07:19:43;;;;;;;55.22;21.08;;;;;;;;;;4982303;28;20484;-68
2022/04/29 07:22:09;;;;;;;45.92;21.20;;;;;;;;;;4977959;28;20042;-68
2022/04/29 07:24:44;;;;;;;60.80;21.38;;;;;;;;;;4982058;28;20033;-67
2022/04/29 07:27:10;;;;;;;49.78;22.02;;;;;;;;;;4985537;28;20061;-68
2022/04/29 07:29:36;;;;;;;43.53;20.83;;;;;;;;;;5026361;28;20401;-68
2022/04/29 07:32:11;;;;;;;42.35;20.05;;;;;;;;;;4972433;28;20050;-68
2022/04/29 07:43:21;;;;;;;48.50;20.95;;;;;;;;;;4976068;28;20118;-68
2022/04/29 07:45:51;;;;;;;47.35;20.00;;;;;;;;;;4984625;28;20783;-68
2022/04/29 07:48:23;;;;;;;45.65;19.92;;;;;;;;;;4974783;28;20034;-68
2022/04/29 07:50:50;;;;;;;47.17;20.67;;;;;;;;;;4978871;28;20068;-68
2022/04/29 07:53:17;;;;;;;51.25;20.88;;;;;;;;;;4978134;28;20033;-68
2022/04/29 07:55:44;;;;;;;43.80;19.17;;;;;;;;;;4984996;28;20136;-68
2022/04/29 07:58:10;;;;;;;49.35;21.90;;;;;;;;;;4981308;28;20050;-68
2022/04/29 08:00:37;;;;;;;46.88;21.75;;;;;;;;;;4988678;28;20023;-68
2022/04/29 08:03:04;;;;;;;53.00;22.77;;;;;;;;;;4985672;28;20463;-68
2022/04/29 08:05:49;;;;;;;63.42;23.75;;;;;;;;;;4986514;28;20038;-68
2022/04/29 08:08:16;;;;;;;57.50;24.00;;;;;;;;;;4985295;28;20050;-68
2022/04/29 08:10:44;;;;;;;53.58;22.95;;;;;;;;;;4987319;28;20507;-68
2022/04/29 08:13:11;;;;;;;55.35;23.38;;;;;;;;;;4988063;28;20034;-68
2022/04/29 08:16:16;;;;;;;39.75;21.00;;;;;;;;;;5029820;28;20037;-68
2022/04/29 08:19:04;;;;;;;50.13;23.50;;;;;;;;;;5018937;28;20036;-68
2022/04/29 08:21:49;;;;;;;40.55;22.20;;;;;;;;;;5020487;28;20049;-68
2022/04/29 08:24:15;;;;;;;49.22;24.45;;;;;;;;;;5018132;28;20045;-68
2022/04/29 08:26:41;;;;;;;46.65;21.63;;;;;;;;;;5025837;28;20071;-68
2022/04/29 08:29:10;;;;;;;50.60;23.83;;;;;;;;;;5028389;28;20022;-68
2022/04/29 08:31:36;;;;;;;40.70;21.10;;;;;;;;;;5029256;28;20043;-68
2022/04/29 08:34:04;;;;;;;47.35;21.33;;;;;;;;;;5027527;28;20522;-68
2022/04/29 08:36:31;;;;;;;44.25;22.05;;;;;;;;;;5029477;28;20438;-68
2022/04/29 08:38:59;;;;;;;54.42;22.23;;;;;;;;;;5028509;28;20979;-68
2022/04/29 08:41:26;;;;;;;46.83;22.10;;;;;;;;;;5011779;28;20038;-68
2022/04/29 08:43:54;;;;;;;47.97;21.15;;;;;;;;;;5027743;28;20033;-68
2022/04/29 08:46:35;;;;;;;42.55;20.48;;;;;;;;;;5007659;28;20125;-68
2022/04/29 08:49:23;;;;;;;41.65;19.98;;;;;;;;;;4994232;28;20041;-68
2022/04/29 08:51:49;;;;;;;49.25;20.27;;;;;;;;;;4980644;28;20023;-68
2022/04/29 08:58:36;;;;;;;49.80;21.58;;;;;;;;;;4972700;28;20026;-68
2022/04/29 08:59:48;;;;;;;47.90;19.88;;;;;;;;;;4985114;28;20141;-68
2022/04/29 09:02:14;;;;;;;50.00;19.75;;;;;;;;;;4978249;28;20064;-68
2022/04/29 09:04:41;;;;;;;39.42;17.48;;;;;;;;;;4976190;28;20065;-68
2022/04/29 09:07:09;;;;;;;45.90;17.60;;;;;;;;;;4970221;28;20439;-68
2022/04/29 09:09:36;;;;;;;37.97;17.80;;;;;;;;;;4978000;28;20535;-68
2022/04/29 09:12:16;;;;;;;37.47;17.48;;;;;;;;;;4969574;28;20042;-68
2022/04/29 09:14:42;;;;;;;40.20;17.33;;;;;;;;;;4981357;28;20042;-68
2022/04/29 09:17:25;;;;;;;46.33;16.92;;;;;;;;;;4977422;28;20026;-68
2022/04/29 09:19:51;;;;;;;33.38;16.85;;;;;;;;;;4975368;28;20045;-68
2022/04/29 09:22:17;;;;;;;38.25;17.25;;;;;;;;;;4972185;28;20027;-68
2022/04/29 09:25:00;;;;;;;50.20;18.00;;;;;;;;;;4980947;28;20030;-68
2022/04/29 09:27:57;;;;;;;39.53;18.30;;;;;;;;;;4970858;28;20129;-68
2022/04/29 09:30:41;;;;;;;39.75;18.83;;;;;;;;;;4973239;28;20022;-68
2022/04/29 09:33:28;;;;;;;37.88;17.58;;;;;;;;;;5059809;28;21013;-68
2022/04/29 09:36:22;;;;;;;43.85;18.13;;;;;;;;;;5046957;28;20027;-68
2022/04/29 09:41:40;;;;;;;42.38;20.23;;;;;;;;;;5060170;28;20032;-68
2022/04/29 09:44:06;;;;;;;43.97;18.55;;;;;;;;;;5054868;28;20055;-68
2022/04/29 09:46:38;;;;;;;42.92;20.38;;;;;;;;;;5067099;28;20403;-68
2022/04/29 09:49:08;;;;;;;37.93;17.37;;;;;;;;;;5061367;28;20029;-68
2022/04/29 09:51:46;;;;;;;37.90;17.73;;;;;;;;;;5062115;28;21653;-68
2022/04/29 09:54:12;;;;;;;40.90;17.70;;;;;;;;;;5056791;28;20032;-68
2022/04/29 09:56:39;;;;;;;34.33;17.52;;;;;;;;;;5047452;28;20445;-68
2022/04/29 09:59:07;;;;;;;38.90;18.35;;;;;;;;;;5061938;28;20035;-68
2022/04/29 10:01:34;;;;;;;39.35;19.08;;;;;;;;;;5048336;28;20044;-68
2022/04/29 10:04:00;;;;;;;37.45;18.58;;;;;;;;;;5062278;28;20051;-68
2022/04/29 10:06:28;;;;;;;44.38;19.42;;;;;;;;;;5060551;28;20020;-68
2022/04/29 10:08:54;;;;;;;37.40;17.50;;;;;;;;;;5064535;28;20035;-68
2022/04/29 10:11:24;;;;;;;35.25;17.70;;;;;;;;;;4986453;28;20126;-68
2022/04/29 10:13:51;;;;;;;38.35;17.50;;;;;;;;;;4975096;28;20042;-68
2022/04/29 10:16:28;;;;;;;32.88;19.17;;;;;;;;;;4988437;28;20027;-68
2022/04/29 10:22:07;;;;;;;33.85;17.05;;;;;;;;;;4985328;28;20057;-68
2022/04/29 10:24:34;;;;;;;42.80;18.48;;;;;;;;;;5009756;28;20425;-68
2022/04/29 10:27:00;;;;;;;34.00;16.58;;;;;;;;;;4992111;28;20401;-68
2022/04/29 10:29:27;;;;;;;34.85;16.50;;;;;;;;;;4985028;28;20026;-68
2022/04/29 10:32:25;;;;;;;31.17;16.77;;;;;;;;;;4982740;28;20054;-68
2022/04/29 10:34:55;;;;;;;39.70;16.52;;;;;;;;;;5063123;28;20465;-68
2022/04/29 10:37:31;;;;;;;36.58;17.48;;;;;;;;;;5062436;28;20614;-68
2022/04/29 10:40:12;;;;;;;32.97;16.20;;;;;;;;;;5056322;28;20052;-68
2022/04/29 10:42:57;;;;;;;34.50;17.40;;;;;;;;;;5057358;28;20445;-68
2022/04/29 10:45:23;;;;;;;42.40;16.27;;;;;;;;;;5061422;28;20158;-68
2022/04/29 10:47:50;;;;;;;38.40;17.33;;;;;;;;;;5048085;28;20549;-72
2022/04/29 10:50:31;;;;;;;36.05;16.48;;;;;;;;;;5051409;28;20442;-67
2022/04/29 10:53:16;;;;;;;43.30;16.50;;;;;;;;;;5052709;28;20079;-67
2022/04/29 10:55:45;;;;;;;32.13;15.52;;;;;;;;;;5057342;28;20086;-67
2022/04/29 10:58:46;;;;;;;37.30;16.35;;;;;;;;;;5048300;28;20049;-67
2022/04/29 11:01:15;;;;;;;29.17;14.88;;;;;;;;;;5054493;28;20082;-67
2022/04/29 11:03:44;;;;;;;32.78;16.27;;;;;;;;;;5060172;28;20044;-67
2022/04/29 11:06:11;;;;;;;36.13;15.25;;;;;;;;;;5057095;28;20127;-67
2022/04/29 11:08:38;;;;;;;32.88;15.70;;;;;;;;;;5063578;28;20108;-67
2022/04/29 11:11:05;;;;;;;34.38;15.43;;;;;;;;;;5005738;28;20043;-67
2022/04/29 11:14:00;;;;;;;36.15;14.77;;;;;;;;;;4941361;29;20027;-67
2022/04/29 11:16:49;;;;;;;33.50;14.98;;;;;;;;;;4930201;29;20158;-67
2022/04/29 11:19:28;;;;;;;36.10;15.60;;;;;;;;;;4935672;28;20378;-67
2022/04/29 11:24:47;;;;;;;28.70;14.50;;;;;;;;;;4936154;28;20695;-67
2022/04/29 11:27:29;;;;;;;26.83;15.48;;;;;;;;;;4914493;29;20028;-67
2022/04/29 11:30:01;;;;;;;32.65;14.80;;;;;;;;;;4926609;28;20375;-67
2022/04/29 11:32:38;;;;;;;30.50;14.43;;;;;;;;;;4935859;28;20036;-67
2022/04/29 11:35:04;;;;;;;31.88;14.02;;;;;;;;;;4931653;29;20039;-67
2022/04/29 11:37:34;;;;;;;27.58;14.10;;;;;;;;;;4944834;29;20028;-67
2022/04/29 11:40:05;;;;;;;30.95;14.68;;;;;;;;;;4932289;29;20082;-67
2022/04/29 11:42:33;;;;;;;31.80;13.90;;;;;;;;;;4942681;28;20035;-67
2022/04/29 11:45:05;;;;;;;32.65;14.27;;;;;;;;;;4930649;28;20044;-67
2022/04/29 11:47:33;;;;;;;30.95;15.32;;;;;;;;;;4931721;29;20031;-67
2022/04/29 11:50:00;;;;;;;30.20;15.73;;;;;;;;;;4945890;28;20054;-67
2022/04/29 11:52:27;;;;;;;32.20;14.80;;;;;;;;;;4982797;28;20038;-67
2022/04/29 11:54:55;;;;;;;28.95;14.60;;;;;;;;;;4971636;28;20026;-67
2022/04/29 11:57:21;;;;;;;28.27;15.13;;;;;;;;;;4970979;28;20061;-67
2022/04/29 11:59:48;;;;;;;30.05;14.45;;;;;;;;;;4978744;28;20035;-67
2022/04/29 12:02:21;;;;;;;36.17;17.17;;;;;;;;;;4983612;28;20088;-67
2022/04/29 12:04:54;;;;;;;33.35;16.08;;;;;;;;;;4979171;28;20088;-67
2022/04/29 12:07:20;;;;;;;32.38;16.55;;;;;;;;;;4990098;28;20072;-67
2022/04/29 12:09:47;;;;;;;33.45;15.48;;;;;;;;;;4998749;28;20039;-68
2022/04/29 12:12:26;;;;;;;32.13;15.05;;;;;;;;;;4977281;28;20034;-68
2022/04/29 12:14:52;;;;;;;30.80;15.55;;;;;;;;;;4981499;28;20045;-68
2022/04/29 12:17:18;;;;;;;31.05;15.50;;;;;;;;;;4978007;28;20072;-67
2022/04/29 12:19:48;;;;;;;37.38;16.20;;;;;;;;;;4975285;28;20023;-67
2022/04/29 12:22:27;;;;;;;33.58;16.42;;;;;;;;;;4982318;28;20085;-68
2022/04/29 12:24:53;;;;;;;29.63;16.90;;;;;;;;;;4994549;28;20122;-68
2022/04/29 12:27:27;;;;;;;30.92;16.23;;;;;;;;;;4980268;28;20030;-68
2022/04/29 12:35:30;;;;;;;31.33;15.70;;;;;;;;;;4975128;28;20054;-68
2022/04/29 12:37:56;;;;;;;30.20;15.80;;;;;;;;;;4974489;28;20048;-68
2022/04/29 12:40:29;;;;;;;25.73;15.57;;;;;;;;;;4986654;28;20057;-67
2022/04/29 12:43:14;;;;;;;30.42;15.32;;;;;;;;;;4970706;28;20031;-67
2022/04/29 12:45:40;;;;;;;31.92;15.32;;;;;;;;;;4983756;28;20393;-68
2022/04/29 12:48:16;;;;;;;34.05;15.60;;;;;;;;;;4971909;28;20031;-68
2022/04/29 12:50:47;;;;;;;26.30;14.68;;;;;;;;;;4976115;28;20069;-68
2022/04/29 12:53:17;;;;;;;35.67;15.63;;;;;;;;;;4978728;28;20026;-68
2022/04/29 12:55:44;;;;;;;30.77;14.07;;;;;;;;;;4980382;28;20030;-68
2022/04/29 12:58:14;;;;;;;35.63;15.02;;;;;;;;;;4986207;28;20050;-67
2022/04/29 13:00:42;;;;;;;33.85;14.77;;;;;;;;;;4970653;28;20034;-68
2022/04/29 13:03:10;;;;;;;26.15;14.68;;;;;;;;;;4971036;28;20389;-67
2022/04/29 13:05:41;;;;;;;26.08;15.27;;;;;;;;;;4986891;28;20126;-68
2022/04/29 13:08:09;;;;;;;27.55;15.60;;;;;;;;;;4979133;28;20027;-67
2022/04/29 13:10:46;;;;;;;30.65;13.65;;;;;;;;;;4973645;28;20031;-67
2022/04/29 13:13:12;;;;;;;25.50;13.57;;;;;;;;;;4980270;28;20475;-67
2022/04/29 13:15:41;;;;;;;28.58;11.48;;;;;;;;;;4973627;28;20034;-68
2022/04/29 13:18:09;;;;;;;33.40;13.23;;;;;;;;;;4981499;28;20027;-67
2022/04/29 13:20:35;;;;;;;21.38;10.95;;;;;;;;;;4995707;28;20026;-68
2022/04/29 13:23:02;;;;;;;21.10;10.65;;;;;;;;;;4972713;28;20397;-68
2022/04/29 13:25:28;;;;;;;25.58;11.73;;;;;;;;;;4975871;28;20030;-68
2022/04/29 13:27:55;;;;;;;25.52;12.23;;;;;;;;;;5004718;28;20117;-68
2022/04/29 13:30:21;;;;;;;31.73;12.85;;;;;;;;;;4984550;28;20160;-68
2022/04/29 13:32:48;;;;;;;25.25;11.65;;;;;;;;;;4989018;28;20035;-68
2022/04/29 13:35:16;;;;;;;23.85;10.48;;;;;;;;;;4983041;28;20019;-68
2022/04/29 13:37:42;;;;;;;25.42;12.25;;;;;;;;;;4982574;28;20038;-68
2022/04/29 13:40:09;;;;;;;37.28;15.30;;;;;;;;;;4980766;28;20018;-68
2022/04/29 13:42:36;;;;;;;27.75;13.02;;;;;;;;;;4983656;28;20031;-68
2022/04/29 13:45:05;;;;;;;24.55;12.15;;;;;;;;;;4972392;28;20475;-68
2022/04/29 13:47:35;;;;;;;24.42;11.13;;;;;;;;;;4981078;28;20152;-68
2022/04/29 13:50:01;;;;;;;27.25;11.25;;;;;;;;;;4978361;28;20033;-68
2022/04/29 13:55:14;;;;;;;30.77;10.93;;;;;;;;;;4971255;28;20038;-68
2022/04/29 13:57:40;;;;;;;23.33;11.38;;;;;;;;;;4976795;28;20043;-68
2022/04/29 14:00:09;;;;;;;25.58;10.68;;;;;;;;;;5002585;28;20164;-67
2022/04/29 14:02:38;;;;;;;25.53;10.10;;;;;;;;;;4972115;28;20027;-68
2022/04/29 14:05:05;;;;;;;20.85;9.95;;;;;;;;;;4977737;28;20022;-68
2022/04/29 14:07:31;;;;;;;20.02;10.23;;;;;;;;;;4977424;28;20038;-67
2022/04/29 14:09:57;;;;;;;26.83;10.88;;;;;;;;;;4973452;28;20027;-67
2022/04/29 14:12:25;;;;;;;23.33;10.25;;;;;;;;;;4977847;28;20023;-68
2022/04/29 14:14:53;;;;;;;23.02;10.15;;;;;;;;;;4986953;28;20027;-68
2022/04/29 14:17:19;;;;;;;16.77;9.45;;;;;;;;;;4985121;28;20441;-68
2022/04/29 14:19:45;;;;;;;23.95;11.55;;;;;;;;;;4985953;28;20027;-68
2022/04/29 14:22:12;;;;;;;24.55;10.48;;;;;;;;;;4975641;28;20030;-68
2022/04/29 14:24:38;;;;;;;26.55;9.65;;;;;;;;;;4975494;28;20559;-68
2022/04/29 14:27:05;;;;;;;28.20;10.60;;;;;;;;;;4990298;28;20027;-68
2022/04/29 14:29:35;;;;;;;21.48;9.73;;;;;;;;;;4980928;28;20027;-68
2022/04/29 14:32:02;;;;;;;18.63;7.75;;;;;;;;;;4986656;28;20527;-68
2022/04/29 14:34:32;;;;;;;17.75;7.22;;;;;;;;;;4982715;28;20054;-68
2022/04/29 14:36:58;;;;;;;21.90;8.88;;;;;;;;;;4990423;28;20057;-68
2022/04/29 14:39:26;;;;;;;19.02;9.15;;;;;;;;;;4999777;28;20032;-68
2022/04/29 14:41:52;;;;;;;21.27;8.02;;;;;;;;;;4980091;28;20121;-68
2022/04/29 14:44:19;;;;;;;22.52;9.50;;;;;;;;;;4973799;28;20019;-68
2022/04/29 14:46:47;;;;;;;23.67;8.98;;;;;;;;;;4985290;28;20553;-68
2022/04/29 14:49:13;;;;;;;19.50;7.72;;;;;;;;;;4987708;28;20025;-68
2022/04/29 14:51:39;;;;;;;18.13;8.35;;;;;;;;;;4973383;28;20069;-68
2022/04/29 14:54:07;;;;;;;24.00;8.43;;;;;;;;;;4978083;28;20464;-68
2022/04/29 14:56:34;;;;;;;23.60;9.35;;;;;;;;;;4972211;28;20488;-67
2022/04/29 14:59:00;;;;;;;23.75;8.73;;;;;;;;;;4984769;28;20030;-68
2022/04/29 15:01:30;;;;;;;25.25;9.27;;;;;;;;;;4975363;28;20034;-68
2022/04/29 15:03:56;;;;;;;18.00;9.13;;;;;;;;;;4978242;28;20041;-68
2022/04/29 15:06:23;;;;;;;28.38;9.35;;;;;;;;;;4984464;28;20488;-68
2022/04/29 15:15:34;;;;;;;18.05;8.95;;;;;;;;;;4979798;28;20018;-68
2022/04/29 15:17:15;;;;;;;27.63;9.90;;;;;;;;;;4989307;28;20038;-68
2022/04/29 15:19:41;;;;;;;24.35;9.93;;;;;;;;;;4981218;28;20516;-68